Time;durP1;ratioP1;P1;durP2;ratioP2;P2;SDS_P1;SDS_P2;PMS_P1;PMS_P2;Temp;Humidity;BMP_temperature;BMP_pressure;BME280_temperature;BME280_humidity;BME280_pressure;Samples;Min_cycle;Max_cycle;Signal;HPM_P1;HPM_P2
2023/08/07 00:00:25;;;;;;;6.88;4.20;;;16.30;99.90;;;;;;5026580;28;20936;-75
2023/08/07 00:02:52;;;;;;;9.18;4.43;;;16.30;99.90;;;;;;5029253;28;20311;-75
2023/08/07 00:05:19;;;;;;;7.63;6.07;;;16.20;99.90;;;;;;5033680;28;20207;-73
2023/08/07 00:07:46;;;;;;;7.00;5.93;;;16.20;99.90;;;;;;5028441;28;20664;-74
2023/08/07 00:10:13;;;;;;;6.38;5.70;;;16.20;99.90;;;;;;5027084;28;20203;-74
2023/08/07 00:12:40;;;;;;;9.35;4.85;;;16.20;99.90;;;;;;5033013;28;20231;-74
2023/08/07 00:15:08;;;;;;;10.10;6.30;;;16.10;99.90;;;;;;5031784;28;20236;-74
2023/08/07 00:17:36;;;;;;;6.28;4.93;;;16.20;99.90;;;;;;5033553;28;20256;-75
2023/08/07 00:20:05;;;;;;;7.13;6.00;;;16.10;99.90;;;;;;5031252;28;20645;-74
2023/08/07 00:22:32;;;;;;;11.15;7.97;;;16.10;99.90;;;;;;5033478;28;20213;-73
2023/08/07 00:24:59;;;;;;;8.60;7.60;;;16.10;99.90;;;;;;5033559;28;20224;-75
2023/08/07 00:27:26;;;;;;;9.93;6.18;;;16.10;99.90;;;;;;5027530;28;20327;-75
2023/08/07 00:29:54;;;;;;;8.27;5.88;;;16.20;99.90;;;;;;5032789;28;20285;-74
2023/08/07 00:32:20;;;;;;;9.40;6.65;;;16.20;99.90;;;;;;5033052;28;20333;-75
2023/08/07 00:34:50;;;;;;;11.43;6.97;;;16.20;99.90;;;;;;5033038;28;20267;-75
2023/08/07 00:37:17;;;;;;;10.43;7.85;;;16.30;99.90;;;;;;5029111;28;20197;-74
2023/08/07 00:39:45;;;;;;;7.88;6.60;;;16.30;99.90;;;;;;5027300;28;20530;-75
2023/08/07 00:42:11;;;;;;;8.75;7.90;;;16.30;99.90;;;;;;5033031;28;20293;-74
2023/08/07 00:44:39;;;;;;;10.95;7.07;;;16.30;99.90;;;;;;5028023;28;20259;-75
2023/08/07 00:47:07;;;;;;;11.52;9.00;;;16.20;99.90;;;;;;5032036;28;20232;-76
2023/08/07 00:49:34;;;;;;;9.35;7.10;;;16.30;99.90;;;;;;5031584;28;20206;-75
2023/08/07 00:52:03;;;;;;;11.02;8.57;;;16.20;99.90;;;;;;5031371;28;20289;-75
2023/08/07 00:54:30;;;;;;;11.93;7.32;;;16.20;99.90;;;;;;5018810;28;20262;-74
2023/08/07 00:57:00;;;;;;;9.37;7.50;;;16.20;99.90;;;;;;5027315;28;20672;-76
2023/08/07 00:59:27;;;;;;;13.57;7.63;;;16.20;99.90;;;;;;5027210;28;20529;-76
2023/08/07 01:01:54;;;;;;;9.53;6.60;;;16.10;99.90;;;;;;5029903;28;20790;-76
2023/08/07 01:04:20;;;;;;;11.90;8.77;;;16.20;99.90;;;;;;5028726;28;20466;-75
2023/08/07 01:06:49;;;;;;;15.63;8.23;;;16.20;99.90;;;;;;5026154;28;20298;-76
2023/08/07 01:09:18;;;;;;;10.30;7.20;;;16.20;99.90;;;;;;5028968;28;20270;-78
2023/08/07 01:11:50;;;;;;;9.57;7.95;;;16.10;99.90;;;;;;5029602;28;20547;-76
2023/08/07 01:14:26;;;;;;;8.93;7.03;;;16.10;99.90;;;;;;5023317;28;20261;-75
2023/08/07 01:16:57;;;;;;;9.93;6.82;;;16.10;99.90;;;;;;5028637;28;20287;-75
2023/08/07 01:19:26;;;;;;;11.73;7.20;;;16.00;99.90;;;;;;5028227;28;20214;-75
2023/08/07 01:22:08;;;;;;;12.52;8.18;;;16.00;99.90;;;;;;5022736;28;20206;-75
2023/08/07 01:24:35;;;;;;;11.68;8.75;;;16.00;99.90;;;;;;5023264;28;20277;-76
2023/08/07 01:27:13;;;;;;;14.60;7.82;;;16.00;99.90;;;;;;5024147;28;20401;-74
2023/08/07 01:29:46;;;;;;;10.50;8.60;;;15.90;99.90;;;;;;5028089;28;20638;-75
2023/08/07 01:32:18;;;;;;;11.20;9.85;;;15.80;99.90;;;;;;5026194;28;20291;-75
2023/08/07 01:34:46;;;;;;;14.95;8.05;;;15.80;99.90;;;;;;5021203;28;20303;-76
2023/08/07 01:37:15;;;;;;;11.50;9.07;;;15.80;99.90;;;;;;5029081;28;20217;-75
2023/08/07 01:39:43;;;;;;;8.88;7.20;;;15.80;99.90;;;;;;5028159;28;20666;-75
2023/08/07 01:42:10;;;;;;;11.85;9.73;;;15.70;99.90;;;;;;5032017;28;20207;-75
2023/08/07 01:44:38;;;;;;;12.85;9.98;;;15.70;99.90;;;;;;5032403;28;20228;-76
2023/08/07 01:47:06;;;;;;;10.10;7.63;;;15.70;99.90;;;;;;5030532;28;20678;-77
2023/08/07 01:49:33;;;;;;;10.85;8.27;;;15.70;99.90;;;;;;5022196;28;20305;-75
2023/08/07 01:52:00;;;;;;;7.40;6.70;;;15.70;99.90;;;;;;5030168;28;20296;-76
2023/08/07 01:54:28;;;;;;;9.77;8.43;;;15.80;99.90;;;;;;5032535;28;20258;-76
2023/08/07 01:56:55;;;;;;;9.30;7.93;;;15.70;99.90;;;;;;5026680;28;20284;-76
2023/08/07 01:59:22;;;;;;;11.48;9.80;;;15.70;99.90;;;;;;5032456;28;20288;-75
2023/08/07 02:01:49;;;;;;;15.07;8.50;;;15.70;99.90;;;;;;5031732;28;20297;-75
2023/08/07 02:04:16;;;;;;;8.95;8.05;;;15.70;99.90;;;;;;5032383;28;20662;-76
2023/08/07 02:06:42;;;;;;;17.35;8.90;;;15.60;99.90;;;;;;5032317;28;20202;-74
2023/08/07 02:09:09;;;;;;;13.40;8.35;;;15.60;99.90;;;;;;5032195;28;20224;-76
2023/08/07 02:11:38;;;;;;;10.65;8.10;;;15.50;99.90;;;;;;5031749;28;20294;-77
2023/08/07 02:14:05;;;;;;;11.85;9.43;;;15.60;99.90;;;;;;5032045;28;20229;-77
2023/08/07 02:16:31;;;;;;;10.80;7.45;;;15.60;99.90;;;;;;5030121;28;20615;-77
2023/08/07 02:18:58;;;;;;;15.65;9.32;;;15.60;99.90;;;;;;5032115;28;20280;-74
2023/08/07 02:21:25;;;;;;;10.27;8.13;;;15.70;99.90;;;;;;5030607;28;20216;-75
2023/08/07 02:23:52;;;;;;;9.48;8.32;;;15.70;99.90;;;;;;5031276;28;20324;-75
2023/08/07 02:26:19;;;;;;;10.13;7.95;;;15.70;99.90;;;;;;5031491;28;20201;-77
2023/08/07 02:28:50;;;;;;;9.10;7.45;;;15.70;99.90;;;;;;5029713;28;20303;-75
2023/08/07 02:31:16;;;;;;;12.25;9.10;;;15.70;99.90;;;;;;5030243;28;20208;-76
2023/08/07 02:33:43;;;;;;;13.30;8.85;;;15.80;99.90;;;;;;5031482;28;20256;-75
2023/08/07 02:36:10;;;;;;;13.18;7.70;;;15.80;99.90;;;;;;5033994;28;20284;-74
2023/08/07 02:38:38;;;;;;;10.00;8.75;;;15.80;99.90;;;;;;5028304;28;20263;-74
2023/08/07 02:41:04;;;;;;;12.23;7.75;;;15.80;99.90;;;;;;5034117;28;20210;-76
2023/08/07 02:43:33;;;;;;;10.77;8.45;;;15.70;99.90;;;;;;5034608;28;20227;-76
2023/08/07 02:46:01;;;;;;;14.77;7.68;;;15.70;99.90;;;;;;5035096;28;20208;-75
2023/08/07 02:48:28;;;;;;;9.75;8.02;;;15.70;99.90;;;;;;5034701;28;20252;-77
2023/08/07 02:50:55;;;;;;;8.65;7.82;;;15.60;99.90;;;;;;5027143;28;20241;-76
2023/08/07 02:53:22;;;;;;;11.45;8.45;;;15.60;99.90;;;;;;5022820;28;20308;-76
2023/08/07 02:55:49;;;;;;;9.88;8.43;;;15.50;99.90;;;;;;5029485;28;20284;-76
2023/08/07 02:58:18;;;;;;;9.50;7.82;;;15.50;99.90;;;;;;5029913;28;20252;-76
2023/08/07 03:00:45;;;;;;;11.60;10.25;;;15.50;99.90;;;;;;5030436;28;20248;-75
2023/08/07 03:03:13;;;;;;;11.18;9.55;;;15.50;99.90;;;;;;5031489;28;20312;-76
2023/08/07 03:05:40;;;;;;;8.50;7.60;;;15.50;99.90;;;;;;5029007;28;20209;-75
2023/08/07 03:08:07;;;;;;;10.32;7.63;;;15.50;99.90;;;;;;5035353;28;20245;-75
2023/08/07 03:10:34;;;;;;;13.65;10.00;;;15.50;99.90;;;;;;5020981;28;20204;-78
2023/08/07 03:13:01;;;;;;;15.25;10.07;;;15.50;99.90;;;;;;5029518;28;20225;-74
2023/08/07 03:15:28;;;;;;;9.82;7.95;;;15.50;99.90;;;;;;5031162;28;20270;-74
2023/08/07 03:17:54;;;;;;;10.88;9.20;;;15.50;99.90;;;;;;5027453;28;20229;-75
2023/08/07 03:20:23;;;;;;;9.00;7.70;;;15.50;99.90;;;;;;5033324;28;20237;-75
2023/08/07 03:22:50;;;;;;;10.65;8.32;;;15.50;99.90;;;;;;5027517;28;20229;-76
2023/08/07 03:25:17;;;;;;;10.05;8.07;;;15.50;99.90;;;;;;5031915;28;20335;-76
2023/08/07 03:27:44;;;;;;;12.18;9.90;;;15.50;99.90;;;;;;5029083;28;20319;-75
2023/08/07 03:30:12;;;;;;;11.10;8.48;;;15.50;99.90;;;;;;5021573;28;20201;-76
2023/08/07 03:32:39;;;;;;;11.63;8.32;;;15.60;99.90;;;;;;5030740;28;20289;-76
2023/08/07 03:35:07;;;;;;;11.52;9.20;;;15.60;99.90;;;;;;5025618;28;20207;-74
2023/08/07 03:37:35;;;;;;;13.77;9.30;;;15.60;99.90;;;;;;5027391;28;20663;-76
2023/08/07 03:40:02;;;;;;;11.98;8.63;;;15.60;99.90;;;;;;5028945;28;20283;-76
2023/08/07 03:42:29;;;;;;;10.65;8.98;;;15.60;99.90;;;;;;5030958;28;20567;-75
2023/08/07 03:44:56;;;;;;;9.13;7.10;;;15.60;99.90;;;;;;5033563;28;20609;-76
2023/08/07 03:47:23;;;;;;;8.52;7.45;;;15.60;99.90;;;;;;5024650;28;20213;-74
2023/08/07 03:49:50;;;;;;;10.45;7.13;;;15.60;99.90;;;;;;5033344;28;20272;-75
2023/08/07 03:52:18;;;;;;;9.32;7.47;;;15.60;99.90;;;;;;5033429;28;20287;-75
2023/08/07 03:54:46;;;;;;;6.45;5.85;;;15.70;99.90;;;;;;5034186;28;20229;-75
2023/08/07 03:57:13;;;;;;;7.18;6.40;;;15.80;99.90;;;;;;5033888;28;20206;-75
2023/08/07 03:59:40;;;;;;;9.55;7.03;;;15.80;99.90;;;;;;5033142;28;20206;-73
2023/08/07 04:02:07;;;;;;;9.32;6.38;;;15.90;99.90;;;;;;5033244;28;20288;-73
2023/08/07 04:04:34;;;;;;;14.85;6.20;;;15.90;99.90;;;;;;5033875;28;20313;-71
2023/08/07 04:07:01;;;;;;;5.70;5.20;;;15.90;99.90;;;;;;5033291;28;20244;-71
2023/08/07 04:09:28;;;;;;;6.57;4.80;;;15.80;99.90;;;;;;5027099;28;20279;-71
2023/08/07 04:11:56;;;;;;;8.70;4.80;;;15.80;99.90;;;;;;5031320;28;20678;-72
2023/08/07 04:14:23;;;;;;;6.03;4.80;;;15.80;99.90;;;;;;5030672;28;20235;-71
2023/08/07 04:16:50;;;;;;;11.85;5.68;;;15.80;99.90;;;;;;5033604;28;20205;-72
2023/08/07 04:19:17;;;;;;;8.50;3.97;;;15.80;99.90;;;;;;5031238;28;20233;-71
2023/08/07 04:21:45;;;;;;;7.53;4.47;;;15.80;99.90;;;;;;5031384;28;20204;-71
2023/08/07 04:24:12;;;;;;;5.75;3.85;;;15.80;99.90;;;;;;5032906;28;20729;-71
2023/08/07 04:26:39;;;;;;;7.45;5.10;;;15.80;99.90;;;;;;5029417;28;20209;-72
2023/08/07 04:29:08;;;;;;;3.17;2.78;;;15.80;99.90;;;;;;5032247;28;20328;-72
2023/08/07 04:31:36;;;;;;;6.47;3.75;;;15.80;99.90;;;;;;5031428;28;20206;-72
2023/08/07 04:34:03;;;;;;;7.45;3.35;;;15.80;99.90;;;;;;5032027;28;20265;-72
2023/08/07 04:36:30;;;;;;;5.35;3.50;;;15.80;99.90;;;;;;5027499;28;20276;-72
2023/08/07 04:38:57;;;;;;;3.70;3.40;;;15.80;99.90;;;;;;5032403;28;20550;-72
2023/08/07 04:41:24;;;;;;;7.72;4.07;;;15.80;99.90;;;;;;5032374;28;20218;-72
2023/08/07 04:43:51;;;;;;;3.40;3.10;;;15.80;99.90;;;;;;5032772;28;20231;-73
2023/08/07 04:46:19;;;;;;;3.25;2.95;;;15.80;99.90;;;;;;5026088;28;20621;-73
2023/08/07 04:48:47;;;;;;;3.88;3.05;;;15.90;99.90;;;;;;5026297;28;20763;-72
2023/08/07 04:51:15;;;;;;;5.72;3.90;;;16.00;99.90;;;;;;5023471;28;20287;-73
2023/08/07 04:53:42;;;;;;;3.97;3.58;;;16.00;99.90;;;;;;5022031;28;20294;-73
2023/08/07 04:56:11;;;;;;;4.82;3.55;;;16.10;99.90;;;;;;5026757;28;20598;-73
2023/08/07 04:58:38;;;;;;;4.25;3.22;;;16.10;99.90;;;;;;5025315;28;20680;-74
2023/08/07 05:01:06;;;;;;;4.55;3.30;;;16.20;99.90;;;;;;5027459;28;20206;-74
2023/08/07 05:03:34;;;;;;;3.45;3.15;;;16.10;99.90;;;;;;5025545;28;20227;-73
2023/08/07 05:06:01;;;;;;;3.47;3.17;;;16.20;99.90;;;;;;5021380;28;20298;-73
2023/08/07 05:08:29;;;;;;;3.35;2.20;;;16.20;99.90;;;;;;5027416;28;20222;-73
2023/08/07 05:10:56;;;;;;;3.50;3.03;;;16.20;99.90;;;;;;5024036;28;20401;-75
2023/08/07 05:13:23;;;;;;;3.83;2.58;;;16.20;99.90;;;;;;5029077;28;20226;-73
2023/08/07 05:15:50;;;;;;;2.92;2.72;;;16.20;99.90;;;;;;5028070;28;20208;-73
2023/08/07 05:18:19;;;;;;;4.68;2.95;;;16.20;99.90;;;;;;5023469;28;20205;-73
2023/08/07 05:20:47;;;;;;;3.10;2.80;;;16.30;99.90;;;;;;5028448;28;20206;-76
2023/08/07 05:23:15;;;;;;;2.80;2.50;;;16.30;99.90;;;;;;5029609;28;20287;-75
2023/08/07 05:25:42;;;;;;;4.65;3.33;;;16.30;99.90;;;;;;5034088;28;20447;-74
2023/08/07 05:28:09;;;;;;;4.55;2.80;;;16.30;99.90;;;;;;5029576;28;20222;-74
2023/08/07 05:30:36;;;;;;;5.32;3.80;;;16.30;99.90;;;;;;5036058;28;20237;-73
2023/08/07 05:33:02;;;;;;;3.90;2.95;;;16.30;99.90;;;;;;5032396;28;20306;-76
2023/08/07 05:35:29;;;;;;;3.20;2.40;;;16.30;99.90;;;;;;5034197;28;20237;-77
2023/08/07 05:37:58;;;;;;;4.37;3.07;;;16.40;99.90;;;;;;5031007;28;20438;-75
2023/08/07 05:40:26;;;;;;;3.28;2.65;;;16.40;99.90;;;;;;5023573;28;20533;-75
2023/08/07 05:42:53;;;;;;;7.07;4.25;;;16.40;99.90;;;;;;5027804;28;20299;-77
2023/08/07 05:45:19;;;;;;;5.10;2.50;;;16.40;99.90;;;;;;5035170;28;20199;-76
2023/08/07 05:47:47;;;;;;;3.20;2.97;;;16.40;99.90;;;;;;5026249;28;20268;-80
2023/08/07 05:50:14;;;;;;;6.07;3.23;;;16.50;99.90;;;;;;5019232;28;20532;-79
2023/08/07 05:52:41;;;;;;;7.40;3.13;;;16.50;99.90;;;;;;5028759;28;20933;-80
2023/08/07 05:55:10;;;;;;;3.00;2.50;;;16.60;99.90;;;;;;5025240;28;20544;-80
2023/08/07 05:57:37;;;;;;;4.67;2.50;;;16.60;99.90;;;;;;5030095;28;20453;-77
2023/08/07 06:00:05;;;;;;;4.25;2.45;;;16.70;99.90;;;;;;5021770;28;20483;-75
2023/08/07 06:02:32;;;;;;;2.73;2.20;;;16.70;99.90;;;;;;5018327;28;20245;-73
2023/08/07 06:04:59;;;;;;;4.40;2.27;;;17.10;99.90;;;;;;5026395;28;20436;-76
2023/08/07 06:07:26;;;;;;;5.67;2.20;;;17.40;99.90;;;;;;5025466;28;20450;-76
2023/08/07 06:09:53;;;;;;;3.43;1.93;;;17.90;99.90;;;;;;5027876;28;20485;-76
2023/08/07 06:12:21;;;;;;;4.07;1.63;;;18.30;99.90;;;;;;5032376;28;20474;-76
2023/08/07 06:14:48;;;;;;;3.67;2.10;;;18.90;99.90;;;;;;5028347;28;20554;-75
2023/08/07 06:17:15;;;;;;;3.70;1.70;;;19.00;99.90;;;;;;5022534;28;20622;-77
2023/08/07 06:19:43;;;;;;;2.80;2.30;;;19.00;99.90;;;;;;5029449;28;20504;-76
2023/08/07 06:22:10;;;;;;;5.40;1.93;;;18.90;99.90;;;;;;5021879;28;20463;-76
2023/08/07 06:24:38;;;;;;;6.37;1.93;;;18.60;99.90;;;;;;5022280;28;20973;-75
2023/08/07 06:27:06;;;;;;;3.73;1.60;;;18.50;99.90;;;;;;5027761;28;20490;-74
2023/08/07 06:29:34;;;;;;;6.30;2.60;;;18.60;99.90;;;;;;5025074;28;20558;-75
2023/08/07 06:32:02;;;;;;;2.00;1.37;;;18.90;99.90;;;;;;5029019;28;20523;-75
2023/08/07 06:34:29;;;;;;;6.50;2.43;;;19.20;99.90;;;;;;5019621;28;20539;-73
2023/08/07 06:36:56;;;;;;;4.00;1.77;;;19.30;99.90;;;;;;5025070;28;20449;-74
2023/08/07 06:39:23;;;;;;;3.43;1.90;;;19.20;99.90;;;;;;5024090;28;20519;-74
2023/08/07 06:41:50;;;;;;;6.97;2.10;;;19.30;99.90;;;;;;5030202;28;20531;-74
2023/08/07 06:44:17;;;;;;;3.70;1.70;;;20.10;99.90;;;;;;5034457;28;20533;-75
2023/08/07 06:46:45;;;;;;;8.40;2.37;;;21.30;99.90;;;;;;5033004;28;20439;-75
2023/08/07 06:49:12;;;;;;;5.20;2.33;;;22.60;99.90;;;;;;5034888;28;20565;-75
2023/08/07 06:51:39;;;;;;;7.73;2.33;;;23.60;99.90;;;;;;5229079;23;20574;-75
2023/08/07 06:54:06;;;;;;;5.60;2.27;;;23.60;99.90;;;;;;5057338;28;20467;-74
2023/08/07 06:56:33;;;;;;;6.67;2.20;;;23.00;99.90;;;;;;5054634;28;20477;-75
2023/08/07 06:59:09;;;;;;;8.03;3.10;;;21.90;99.90;;;;;;5052834;28;20477;-75
2023/08/07 07:01:36;;;;;;;9.10;3.47;;;21.00;99.90;;;;;;5049905;28;20439;-74
2023/08/07 07:04:04;;;;;;;8.83;3.07;;;20.10;99.90;;;;;;5050394;28;20490;-74
2023/08/07 07:06:31;;;;;;;11.47;6.07;;;19.40;99.90;;;;;;5035574;28;20530;-74
2023/08/07 07:08:59;;;;;;;13.23;3.47;;;19.00;99.90;;;;;;5045189;28;20479;-74
2023/08/07 07:11:28;;;;;;;6.07;2.93;;;18.90;99.90;;;;;;5052810;28;20440;-74
2023/08/07 07:13:55;;;;;;;10.53;2.90;;;18.80;99.90;;;;;;5048069;28;20566;-73
2023/08/07 07:16:22;;;;;;;9.30;2.37;;;18.60;99.90;;;;;;5053669;28;20477;-75
2023/08/07 07:18:50;;;;;;;7.90;3.03;;;18.60;99.90;;;;;;5049643;28;20430;-74
2023/08/07 07:21:18;;;;;;;7.73;4.43;;;18.50;99.90;;;;;;5036435;28;20518;-75
2023/08/07 07:23:45;;;;;;;9.47;2.40;;;18.50;99.90;;;;;;5050270;28;20473;-74
2023/08/07 07:26:12;;;;;;;12.73;3.53;;;18.50;99.90;;;;;;5049198;28;20446;-74
2023/08/07 07:28:39;;;;;;;9.77;3.83;;;18.50;99.90;;;;;;5046210;28;20481;-76
2023/08/07 07:31:10;;;;;;;8.50;3.13;;;18.80;99.90;;;;;;5045786;28;20522;-79
2023/08/07 07:33:39;;;;;;;6.37;3.30;;;19.10;99.90;;;;;;5052929;28;20556;-77
2023/08/07 07:36:06;;;;;;;8.10;3.07;;;19.40;99.90;;;;;;5039538;28;20538;-76
2023/08/07 07:38:34;;;;;;;8.77;3.27;;;19.50;99.90;;;;;;5051064;28;20442;-77
2023/08/07 07:41:01;;;;;;;11.80;3.87;;;19.80;99.90;;;;;;5045973;28;20939;-77
2023/08/07 07:43:29;;;;;;;7.97;3.60;;;20.50;99.90;;;;;;5051603;28;20507;-76
2023/08/07 07:45:56;;;;;;;10.23;3.40;;;20.70;99.90;;;;;;5048323;28;20546;-77
2023/08/07 07:48:23;;;;;;;11.17;3.87;;;20.80;99.90;;;;;;5045886;28;20455;-78
2023/08/07 07:50:52;;;;;;;6.87;2.53;;;21.00;99.90;;;;;;5051962;28;20895;-76
2023/08/07 07:53:19;;;;;;;11.73;3.40;;;21.50;99.90;;;;;;5042078;28;20498;-77
2023/08/07 07:55:49;;;;;;;10.37;3.50;;;21.80;99.90;;;;;;5048281;28;20438;-77
2023/08/07 07:58:16;;;;;;;8.80;3.70;;;22.20;99.90;;;;;;5049612;28;20480;-77
2023/08/07 08:00:43;;;;;;;9.30;4.00;;;23.00;99.90;;;;;;5050105;28;20442;-75
2023/08/07 08:03:10;;;;;;;14.53;4.53;;;24.00;99.90;;;;;;5050066;28;20886;-76
2023/08/07 08:05:37;;;;;;;9.37;3.13;;;25.10;99.90;;;;;;5052745;28;20932;-75
2023/08/07 08:08:07;;;;;;;16.90;4.37;;;25.50;99.90;;;;;;5050673;28;20521;-77
2023/08/07 08:10:34;;;;;;;9.20;3.33;;;25.30;98.90;;;;;;5051255;28;20506;-77
2023/08/07 08:13:03;;;;;;;16.30;4.43;;;24.40;99.00;;;;;;5054930;28;20466;-77
2023/08/07 08:15:30;;;;;;;16.43;5.50;;;23.40;99.90;;;;;;5053259;28;20517;-77
2023/08/07 08:17:57;;;;;;;11.80;4.30;;;22.90;99.90;;;;;;5052452;28;20524;-78
2023/08/07 08:20:24;;;;;;;13.60;3.53;;;22.70;99.90;;;;;;5053315;28;20871;-78
2023/08/07 08:22:51;;;;;;;14.10;4.20;;;23.40;99.90;;;;;;5053026;28;20552;-77
2023/08/07 08:25:18;;;;;;;9.13;2.83;;;24.60;99.50;;;;;;5051424;28;20528;-77
2023/08/07 08:27:45;;;;;;;6.57;3.47;;;25.70;96.10;;;;;;5053186;28;20881;-78
2023/08/07 08:30:14;;;;;;;7.67;2.67;;;26.60;93.10;;;;;;5051262;28;20567;-77
2023/08/07 08:32:41;;;;;;;11.40;2.50;;;27.30;90.90;;;;;;5047732;28;20496;-78
2023/08/07 08:35:08;;;;;;;8.77;3.47;;;27.70;91.00;;;;;;5048826;28;20454;-77
2023/08/07 08:37:35;;;;;;;7.93;3.50;;;27.30;90.00;;;;;;5051008;28;20443;-78
2023/08/07 08:40:02;;;;;;;9.47;3.17;;;26.70;90.60;;;;;;5047833;28;20537;-78
2023/08/07 08:42:30;;;;;;;8.97;3.63;;;26.10;91.10;;;;;;5047028;28;20457;-78
2023/08/07 08:44:59;;;;;;;16.40;3.20;;;25.00;91.70;;;;;;5051133;28;20601;-78
2023/08/07 08:47:27;;;;;;;6.17;2.83;;;24.20;92.50;;;;;;5052155;28;20452;-78
2023/08/07 08:50:01;;;;;;;6.17;2.40;;;23.20;94.10;;;;;;5049215;28;20860;-77
2023/08/07 08:52:29;;;;;;;12.43;3.20;;;22.90;95.80;;;;;;5050480;28;20450;-77
2023/08/07 08:54:57;;;;;;;9.13;3.23;;;23.10;96.40;;;;;;5050596;28;20534;-77
2023/08/07 08:57:26;;;;;;;5.17;2.13;;;23.30;95.60;;;;;;5051420;28;20939;-78
2023/08/07 08:59:53;;;;;;;7.80;2.67;;;23.80;95.70;;;;;;5051028;28;20477;-76
2023/08/07 09:02:22;;;;;;;9.10;2.83;;;25.00;93.80;;;;;;5051724;28;20520;-79
2023/08/07 09:04:50;;;;;;;8.47;3.30;;;25.80;92.20;;;;;;5050816;28;20537;-78
2023/08/07 09:07:19;;;;;;;9.53;4.07;;;26.80;90.90;;;;;;5052171;28;20493;-76
2023/08/07 09:09:47;;;;;;;5.63;2.83;;;27.10;90.20;;;;;;5051772;28;20500;-78
2023/08/07 09:12:20;;;;;;;4.33;2.57;;;26.80;89.00;;;;;;5043514;28;20533;-77
2023/08/07 09:14:54;;;;;;;11.80;3.40;;;26.00;90.50;;;;;;5052124;28;20547;-78
2023/08/07 09:17:24;;;;;;;14.10;3.90;;;25.00;91.50;;;;;;5033445;28;20442;-78
2023/08/07 09:20:03;;;;;;;4.23;2.47;;;23.40;94.20;;;;;;5061562;28;20438;-78
2023/08/07 09:22:30;;;;;;;8.50;3.80;;;21.40;99.90;;;;;;5065552;28;20871;-76
2023/08/07 09:24:59;;;;;;;9.27;4.03;;;20.30;99.90;;;;;;5061109;28;20470;-75
2023/08/07 09:27:27;;;;;;;10.03;3.90;;;19.50;99.90;;;;;;5052655;28;20693;-76
2023/08/07 09:29:56;;;;;;;13.30;3.80;;;19.00;99.90;;;;;;5049201;28;20485;-75
2023/08/07 09:32:24;;;;;;;11.73;4.07;;;18.60;99.90;;;;;;5046971;28;20442;-76
2023/08/07 09:34:51;;;;;;;7.87;3.30;;;18.60;99.90;;;;;;5044890;28;20521;-75
2023/08/07 09:37:20;;;;;;;10.37;3.77;;;19.20;99.90;;;;;;5050365;28;20446;-76
2023/08/07 09:39:47;;;;;;;13.17;2.80;;;20.30;99.90;;;;;;5049898;28;20543;-77
2023/08/07 09:42:15;;;;;;;10.50;3.37;;;21.80;99.90;;;;;;5038516;28;20904;-77
2023/08/07 09:44:43;;;;;;;10.30;4.13;;;23.00;99.90;;;;;;5054659;28;20853;-77
2023/08/07 09:47:14;;;;;;;16.13;4.07;;;23.60;99.60;;;;;;5062608;28;20532;-77
2023/08/07 09:49:43;;;;;;;9.07;3.50;;;24.20;98.70;;;;;;5060818;28;20991;-78
2023/08/07 09:52:13;;;;;;;11.40;4.00;;;24.80;97.00;;;;;;5057222;28;20476;-77
2023/08/07 09:54:41;;;;;;;7.47;3.07;;;25.20;94.50;;;;;;5062550;28;20493;-78
2023/08/07 09:57:08;;;;;;;5.40;3.00;;;25.80;93.80;;;;;;5046671;28;20469;-77
2023/08/07 09:59:36;;;;;;;7.93;3.30;;;26.10;92.90;;;;;;5044180;28;20449;-77
2023/08/07 10:02:03;;;;;;;9.30;3.20;;;26.10;91.70;;;;;;5041127;28;20570;-77
2023/08/07 10:04:31;;;;;;;8.83;3.03;;;25.70;90.10;;;;;;5051043;28;21020;-77
2023/08/07 10:06:58;;;;;;;7.27;2.60;;;25.00;91.50;;;;;;5054627;28;20815;-78
2023/08/07 10:09:27;;;;;;;10.97;3.03;;;24.50;91.70;;;;;;5056270;28;20476;-78
2023/08/07 10:11:56;;;;;;;10.40;2.97;;;23.40;91.20;;;;;;5039229;28;20470;-78
2023/08/07 10:14:23;;;;;;;5.87;3.30;;;22.50;91.50;;;;;;5049677;28;20546;-78
2023/08/07 10:16:51;;;;;;;4.93;2.40;;;21.80;92.70;;;;;;5048336;28;20978;-78
2023/08/07 10:19:18;;;;;;;12.70;3.10;;;21.20;92.90;;;;;;5040929;28;20456;-77
2023/08/07 10:21:46;;;;;;;5.70;2.03;;;20.90;93.70;;;;;;5052962;28;20791;-79
2023/08/07 10:24:14;;;;;;;9.07;2.33;;;20.90;94.10;;;;;;5047774;28;20507;-78
2023/08/07 10:26:45;;;;;;;8.30;2.93;;;20.80;94.80;;;;;;5053051;28;20520;-78
2023/08/07 10:29:18;;;;;;;10.97;2.97;;;21.10;95.30;;;;;;5053833;28;20441;-79
2023/08/07 10:31:46;;;;;;;9.07;4.43;;;21.60;95.00;;;;;;5043167;28;20478;-78
2023/08/07 10:34:14;;;;;;;6.50;3.27;;;22.00;94.50;;;;;;5049726;28;20524;-77
2023/08/07 10:36:41;;;;;;;8.17;2.90;;;22.50;93.50;;;;;;5052164;28;20939;-77
2023/08/07 10:39:09;;;;;;;6.90;2.37;;;23.00;92.60;;;;;;5049351;28;20477;-76
2023/08/07 10:41:43;;;;;;;5.90;2.70;;;23.00;91.90;;;;;;5049496;28;20434;-77
2023/08/07 10:44:22;;;;;;;10.30;2.77;;;22.90;92.30;;;;;;5052874;28;20458;-77
2023/08/07 10:46:50;;;;;;;9.20;3.60;;;22.80;92.30;;;;;;5050787;28;20466;-77
2023/08/07 10:49:38;;;;;;;8.27;2.33;;;22.60;92.70;;;;;;5055700;28;20533;-77
2023/08/07 10:52:09;;;;;;;4.40;2.60;;;21.80;94.40;;;;;;5055729;28;20497;-77
2023/08/07 10:54:42;;;;;;;3.93;1.70;;;21.30;96.30;;;;;;5048123;28;20481;-77
2023/08/07 10:57:13;;;;;;;6.83;2.37;;;21.20;97.70;;;;;;5050874;28;20453;-78
2023/08/07 10:59:46;;;;;;;6.10;2.00;;;20.80;98.40;;;;;;5048645;28;20449;-77
2023/08/07 11:02:14;;;;;;;6.93;2.53;;;20.30;99.60;;;;;;5053177;28;20442;-78
2023/08/07 11:04:41;;;;;;;11.20;3.30;;;20.10;99.90;;;;;;5052891;28;20487;-78
2023/08/07 11:07:08;;;;;;;7.60;3.93;;;20.00;99.90;;;;;;5052400;28;20438;-77
2023/08/07 11:09:36;;;;;;;9.53;2.83;;;20.00;99.90;;;;;;5051136;28;20528;-77
2023/08/07 11:12:03;;;;;;;9.73;4.10;;;20.20;99.90;;;;;;5046734;28;20452;-77
2023/08/07 11:14:30;;;;;;;7.60;2.63;;;20.50;99.90;;;;;;5047372;28;20531;-77
2023/08/07 11:16:58;;;;;;;5.90;2.30;;;20.90;99.90;;;;;;5052743;28;20541;-79
2023/08/07 11:19:26;;;;;;;10.53;2.30;;;21.30;98.00;;;;;;5041126;28;20453;-76
2023/08/07 11:21:56;;;;;;;8.03;2.53;;;21.60;96.70;;;;;;5049232;28;20537;-77
2023/08/07 11:24:23;;;;;;;7.17;2.90;;;21.80;96.30;;;;;;5047023;28;20502;-78
2023/08/07 11:26:50;;;;;;;6.23;2.83;;;22.00;96.00;;;;;;5043719;28;20534;-77
2023/08/07 11:29:18;;;;;;;9.23;3.10;;;22.20;95.10;;;;;;5050285;28;20461;-77
2023/08/07 11:31:46;;;;;;;10.40;3.50;;;22.10;95.20;;;;;;5039802;28;20540;-77
2023/08/07 11:34:15;;;;;;;6.20;2.30;;;21.90;95.10;;;;;;5051669;28;20442;-77
2023/08/07 11:36:43;;;;;;;9.30;3.07;;;21.60;95.60;;;;;;5045656;28;20874;-77
2023/08/07 11:39:11;;;;;;;9.17;3.33;;;21.50;96.10;;;;;;5050543;28;20448;-75
2023/08/07 11:41:38;;;;;;;4.90;2.43;;;21.40;95.30;;;;;;5050651;28;20505;-76
2023/08/07 11:44:05;;;;;;;8.70;2.77;;;21.30;95.20;;;;;;5052228;28;20569;-76
2023/08/07 11:46:32;;;;;;;6.80;2.33;;;21.00;94.90;;;;;;5052432;28;20436;-77
2023/08/07 11:48:59;;;;;;;10.03;3.00;;;20.80;95.20;;;;;;5045809;28;20985;-77
2023/08/07 11:51:29;;;;;;;8.37;3.07;;;20.70;95.90;;;;;;5048429;28;20489;-76
2023/08/07 11:53:58;;;;;;;8.47;3.47;;;20.90;95.70;;;;;;5032704;28;20975;-76
2023/08/07 11:56:26;;;;;;;8.17;2.27;;;21.10;95.40;;;;;;5052032;28;20476;-77
2023/08/07 11:58:54;;;;;;;7.07;2.70;;;21.20;95.30;;;;;;5051194;28;20453;-76
2023/08/07 12:01:22;;;;;;;9.00;2.50;;;21.40;94.60;;;;;;5050388;28;20469;-76
2023/08/07 12:03:54;;;;;;;6.03;2.97;;;21.50;93.90;;;;;;5053183;28;20545;-74
2023/08/07 12:06:22;;;;;;;8.00;2.17;;;21.70;93.40;;;;;;5050020;28;20449;-77
2023/08/07 12:08:54;;;;;;;8.50;2.67;;;21.70;93.30;;;;;;5051909;28;20477;-76
2023/08/07 12:11:21;;;;;;;10.10;5.57;;;21.50;92.70;;;;;;5051245;28;20576;-77
2023/08/07 12:13:49;;;;;;;8.57;2.83;;;21.70;92.90;;;;;;5051263;28;20876;-76
2023/08/07 12:16:17;;;;;;;5.43;2.70;;;21.80;91.50;;;;;;5047645;28;20535;-79
2023/08/07 12:18:46;;;;;;;11.50;3.70;;;21.70;91.70;;;;;;5051391;28;20864;-78
2023/08/07 12:21:15;;;;;;;9.93;2.73;;;21.70;92.10;;;;;;5052690;28;20445;-76
2023/08/07 12:23:42;;;;;;;9.53;2.40;;;21.50;92.50;;;;;;5051931;28;20465;-77
2023/08/07 12:26:11;;;;;;;8.73;4.10;;;21.30;92.90;;;;;;5052863;28;20520;-75
2023/08/07 12:28:38;;;;;;;10.97;3.10;;;21.00;93.10;;;;;;5054193;28;20440;-77
2023/08/07 12:31:06;;;;;;;8.77;2.60;;;20.80;93.60;;;;;;5053004;28;20513;-75
2023/08/07 12:33:34;;;;;;;11.50;3.93;;;20.50;94.10;;;;;;5051481;28;20467;-75
2023/08/07 12:36:02;;;;;;;4.67;2.67;;;20.30;94.30;;;;;;5054854;28;20862;-75
2023/08/07 12:38:29;;;;;;;9.53;2.93;;;20.20;94.80;;;;;;5051405;28;20446;-76
2023/08/07 12:40:57;;;;;;;6.97;2.97;;;20.40;94.90;;;;;;5048645;28;20436;-77
2023/08/07 12:43:26;;;;;;;6.00;2.00;;;20.60;94.70;;;;;;5052382;28;20811;-76
2023/08/07 12:45:54;;;;;;;3.70;2.30;;;20.90;94.30;;;;;;5045209;28;20505;-76